Time,TemperatureF,DewpointF,PressureIn,WindDirection,WindDirectionDegrees,WindSpeedMPH,WindSpeedGustMPH,Humidity,HourlyPrecipIn,Conditions,Clouds,dailyrainin,SoftwareType,DateUTC
2013-08-10 00:02:00,57.0,43.0,-100.00,SSW,202,6.0,9.0,59,0.00,,,-99.99,,2013-08-10 06:02:00,
2013-08-10 00:11:00,56.0,43.0,-100.00,SW,223,1.0,4.0,60,0.00,,,-99.99,,2013-08-10 06:11:00,
2013-08-10 00:22:00,55.0,43.0,-100.00,NNE,14,4.0,8.0,63,0.00,,,-99.99,,2013-08-10 06:22:00,
2013-08-10 00:32:00,55.0,44.0,-100.00,NE,54,4.0,6.0,64,0.00,,,-99.99,,2013-08-10 06:32:00,
2013-08-10 00:44:00,55.0,43.0,-100.00,NE,51,3.0,5.0,65,0.00,,,-99.99,,2013-08-10 06:44:00,
2013-08-10 00:53:00,54.0,42.0,-100.00,NNE,28,5.0,7.0,66,0.00,,,-99.99,,2013-08-10 06:53:00,
2013-08-10 01:02:00,55.0,42.0,-100.00,ENE,75,2.0,5.0,61,0.00,,,-99.99,,2013-08-10 07:02:00,
2013-08-10 01:12:00,54.0,42.0,-100.00,SSW,210,9.0,11.0,63,0.00,,,-99.99,,2013-08-10 07:12:00,
2013-08-10 01:22:00,54.0,42.0,-100.00,WSW,248,7.0,9.0,63,0.00,,,-99.99,,2013-08-10 07:22:00,
2013-08-10 01:33:00,52.0,42.0,-100.00,WNW,285,6.0,9.0,67,0.00,,,-99.99,,2013-08-10 07:33:00,
2013-08-10 01:43:00,53.0,42.0,-100.00,WNW,299,6.0,9.0,67,0.00,,,-99.99,,2013-08-10 07:43:00,
2013-08-10 01:52:00,51.0,41.0,-100.00,WNW,289,6.0,9.0,69,0.00,,,-99.99,,2013-08-10 07:52:00,
2013-08-10 02:01:00,52.0,42.0,-100.00,NW,319,6.0,10.0,70,0.00,,,-99.99,,2013-08-10 08:01:00,
2013-08-10 02:12:00,52.0,43.0,-100.00,NW,316,4.0,6.0,73,0.00,,,-99.99,,2013-08-10 08:12:00,
2013-08-10 02:21:00,51.0,44.0,-100.00,NW,315,3.0,4.0,78,0.00,,,-99.99,,2013-08-10 08:21:00,
2013-08-10 02:32:00,51.0,45.0,-100.00,NW,319,1.0,4.0,82,0.00,,,-99.99,,2013-08-10 08:32:00,
2013-08-10 02:43:00,52.0,47.0,-100.00,NW,316,2.0,7.0,81,0.00,,,-99.99,,2013-08-10 08:43:00,
2013-08-10 02:53:00,51.0,44.0,-100.00,NW,304,4.0,7.0,77,0.00,,,-99.99,,2013-08-10 08:53:00,
2013-08-10 03:02:00,51.0,44.0,-100.00,West,272,6.0,7.0,77,0.00,,,-99.99,,2013-08-10 09:02:00,
2013-08-10 03:12:00,51.0,42.0,-100.00,West,281,6.0,7.0,72,0.00,,,-99.99,,2013-08-10 09:12:00,
2013-08-10 03:21:00,49.0,42.0,-100.00,West,274,3.0,6.0,76,0.00,,,-99.99,,2013-08-10 09:21:00,
2013-08-10 03:32:00,49.0,42.0,-100.00,West,274,4.0,5.0,76,0.00,,,-99.99,,2013-08-10 09:32:00,
2013-08-10 03:43:00,48.0,41.0,-100.00,WNW,288,4.0,6.0,78,0.00,,,-99.99,,2013-08-10 09:43:00,
2013-08-10 03:52:00,47.0,41.0,-100.00,WNW,285,4.0,6.0,78,0.00,,,-99.99,,2013-08-10 09:52:00,
2013-08-10 04:02:00,50.0,42.0,-100.00,SW,236,7.0,9.0,73,0.00,,,-99.99,,2013-08-10 10:02:00,
2013-08-10 04:11:00,51.0,42.0,-100.00,SW,222,7.0,8.0,72,0.00,,,-99.99,,2013-08-10 10:11:00,
2013-08-10 04:22:00,51.0,42.0,-100.00,SSW,202,6.0,7.0,71,0.00,,,-99.99,,2013-08-10 10:22:00,
2013-08-10 04:33:00,51.0,40.0,-100.00,SW,216,8.0,10.0,65,0.00,,,-99.99,,2013-08-10 10:33:00,
2013-08-10 04:44:00,51.0,40.0,-100.00,SSW,212,7.0,9.0,67,0.00,,,-99.99,,2013-08-10 10:44:00,
2013-08-10 04:52:00,51.0,40.0,-100.00,SW,217,4.0,7.0,67,0.00,,,-99.99,,2013-08-10 10:52:00,
2013-08-10 05:02:00,49.0,40.0,-100.00,South,186,6.0,10.0,69,0.00,,,-99.99,,2013-08-10 11:02:00,
2013-08-10 05:11:00,50.0,41.0,-100.00,South,171,7.0,9.0,70,0.00,,,-99.99,,2013-08-10 11:11:00,
2013-08-10 05:22:00,50.0,41.0,-100.00,South,178,6.0,8.0,71,0.00,,,-99.99,,2013-08-10 11:22:00,
2013-08-10 05:33:00,49.0,40.0,-100.00,SSW,210,4.0,8.0,70,0.00,,,-99.99,,2013-08-10 11:33:00,
2013-08-10 05:43:00,49.0,39.0,-100.00,SW,216,2.0,4.0,69,0.00,,,-99.99,,2013-08-10 11:43:00,
2013-08-10 05:52:00,49.0,39.0,-100.00,SSE,162,4.0,6.0,67,0.00,,,-99.99,,2013-08-10 11:52:00,
2013-08-10 06:01:00,51.0,38.0,-100.00,South,175,6.0,7.0,62,0.00,,,-99.99,,2013-08-10 12:01:00,
2013-08-10 06:11:00,49.0,37.0,-100.00,SW,223,2.0,5.0,64,0.00,,,-99.99,,2013-08-10 12:11:00,
2013-08-10 06:22:00,48.0,38.0,-100.00,SW,234,4.0,6.0,68,0.00,,,-99.99,,2013-08-10 12:22:00,
2013-08-10 06:32:00,48.0,39.0,-100.00,West,278,5.0,9.0,70,0.00,,,-99.99,,2013-08-10 12:32:00,
2013-08-10 06:42:00,49.0,38.0,-100.00,West,278,6.0,7.0,66,0.00,,,-99.99,,2013-08-10 12:42:00,
2013-08-10 06:52:00,50.0,38.0,-100.00,West,268,5.0,7.0,63,0.00,,,-99.99,,2013-08-10 12:52:00,
2013-08-10 07:01:00,50.0,38.0,-100.00,West,268,5.0,8.0,62,0.00,,,-99.99,,2013-08-10 13:01:00,
2013-08-10 07:11:00,56.0,36.0,-100.00,WSW,247,6.0,12.0,47,0.00,,,-99.99,,2013-08-10 13:11:00,
2013-08-10 07:21:00,56.0,37.0,-100.00,SW,229,7.0,11.0,48,0.00,,,-99.99,,2013-08-10 13:21:00,
2013-08-10 07:32:00,57.0,38.0,-100.00,SW,227,11.0,16.0,48,0.00,,,-99.99,,2013-08-10 13:32:00,
2013-08-10 08:32:00,61.0,40.0,-100.00,SSW,209,14.0,18.0,47,0.00,,,-99.99,,2013-08-10 14:32:00,
2013-08-10 08:42:00,62.0,41.0,-100.00,SSW,210,14.0,19.0,46,0.00,,,-99.99,,2013-08-10 14:42:00,
2013-08-10 08:53:00,63.0,41.0,-100.00,SSW,209,13.0,19.0,45,0.00,,,-99.99,,2013-08-10 14:53:00,
2013-08-10 09:02:00,64.0,41.0,-100.00,SSW,205,13.0,17.0,43,0.00,,,-99.99,,2013-08-10 15:02:00,
2013-08-10 09:33:00,68.0,37.0,-100.00,SSW,203,4.0,10.0,33,0.00,,,-99.99,,2013-08-10 15:33:00,
2013-08-10 09:43:00,69.0,37.0,-100.00,SSW,213,3.0,6.0,30,0.00,,,-99.99,,2013-08-10 15:43:00,
2013-08-10 10:01:00,70.0,36.0,-100.00,SSE,167,2.0,6.0,29,0.00,,,-99.99,,2013-08-10 16:01:00,
2013-08-10 10:11:00,69.0,37.0,-100.00,SSE,167,4.0,7.0,30,0.00,,,-99.99,,2013-08-10 16:11:00,
2013-08-10 10:32:00,71.0,37.0,-100.00,SSE,167,4.0,7.0,29,0.00,,,-99.99,,2013-08-10 16:32:00,
2013-08-10 10:43:00,71.0,36.0,-100.00,SSE,167,6.0,11.0,29,0.00,,,-99.99,,2013-08-10 16:43:00,
2013-08-10 10:53:00,70.0,38.0,-100.00,SSE,167,9.0,14.0,31,0.00,,,-99.99,,2013-08-10 16:53:00,
2013-08-10 11:02:00,71.0,38.0,-100.00,SSE,167,6.0,10.0,31,0.00,,,-99.99,,2013-08-10 17:02:00,
2013-08-10 11:12:00,71.0,37.0,-100.00,SSE,167,4.0,11.0,29,0.00,,,-99.99,,2013-08-10 17:12:00,
2013-08-10 11:22:00,71.0,36.0,-100.00,SSE,167,4.0,10.0,28,0.00,,,-99.99,,2013-08-10 17:22:00,
2013-08-10 11:33:00,72.0,36.0,-100.00,SSE,167,4.0,9.0,27,0.00,,,-99.99,,2013-08-10 17:33:00,
2013-08-10 11:43:00,71.0,36.0,-100.00,SSE,167,4.0,8.0,28,0.00,,,-99.99,,2013-08-10 17:43:00,
2013-08-10 11:52:00,71.0,36.0,-100.00,SSE,167,2.0,7.0,27,0.00,,,-99.99,,2013-08-10 17:52:00,
2013-08-10 12:01:00,72.0,36.0,-100.00,SSE,167,4.0,8.0,26,0.00,,,-99.99,,2013-08-10 18:01:00,
2013-08-10 12:11:00,71.0,37.0,-100.00,SSE,167,4.0,9.0,28,0.00,,,-99.99,,2013-08-10 18:11:00,
2013-08-10 12:23:00,71.0,36.0,-100.00,SSE,167,4.0,7.0,28,0.00,,,-99.99,,2013-08-10 18:23:00,
2013-08-10 12:32:00,71.0,37.0,-100.00,SSE,167,5.0,9.0,28,0.00,,,-99.99,,2013-08-10 18:32:00,
2013-08-10 12:44:00,74.0,37.0,-100.00,SSE,167,5.0,12.0,26,0.00,,,-99.99,,2013-08-10 18:44:00,
2013-08-10 12:52:00,73.0,36.0,-100.00,SSE,167,7.0,14.0,26,0.00,,,-99.99,,2013-08-10 18:52:00,
2013-08-10 13:01:00,73.0,35.0,-100.00,SSE,167,6.0,9.0,25,0.00,,,-99.99,,2013-08-10 19:01:00,
2013-08-10 13:11:00,72.0,34.0,-100.00,SSE,167,7.0,12.0,25,0.00,,,-99.99,,2013-08-10 19:11:00,
2013-08-10 13:22:00,72.0,35.0,-100.00,SSE,167,4.0,7.0,25,0.00,,,-99.99,,2013-08-10 19:22:00,
2013-08-10 13:32:00,73.0,35.0,-100.00,SSE,167,6.0,9.0,25,0.00,,,-99.99,,2013-08-10 19:32:00,
2013-08-10 13:44:00,73.0,36.0,-100.00,SSE,167,6.0,9.0,26,0.00,,,-99.99,,2013-08-10 19:44:00,
2013-08-10 13:53:00,72.0,36.0,-100.00,SSE,167,6.0,10.0,26,0.00,,,-99.99,,2013-08-10 19:53:00,
2013-08-10 14:01:00,72.0,35.0,-100.00,SSE,167,4.0,10.0,25,0.00,,,-99.99,,2013-08-10 20:01:00,
2013-08-10 14:11:00,73.0,35.0,-100.00,SSE,167,5.0,10.0,24,0.00,,,-99.99,,2013-08-10 20:11:00,
2013-08-10 14:22:00,75.0,35.0,-100.00,SSE,167,5.0,12.0,23,0.00,,,-99.99,,2013-08-10 20:22:00,
2013-08-10 14:33:00,73.0,36.0,-100.00,SSE,167,7.0,16.0,25,0.00,,,-99.99,,2013-08-10 20:33:00,
2013-08-10 14:43:00,73.0,35.0,-100.00,SSE,167,6.0,13.0,25,0.00,,,-99.99,,2013-08-10 20:43:00,
2013-08-10 14:53:00,72.0,35.0,-100.00,SSE,167,4.0,7.0,25,0.00,,,-99.99,,2013-08-10 20:53:00,
2013-08-10 15:32:00,71.0,40.0,-100.00,SSE,167,12.0,17.0,33,0.00,,,-99.99,,2013-08-10 21:32:00,
2013-08-10 15:42:00,72.0,40.0,-100.00,SSE,167,11.0,16.0,31,0.00,,,-99.99,,2013-08-10 21:42:00,
2013-08-10 15:52:00,75.0,37.0,-100.00,SSE,167,6.0,12.0,26,0.00,,,-99.99,,2013-08-10 21:52:00,
2013-08-10 16:01:00,75.0,33.0,-100.00,SSE,167,7.0,11.0,21,0.00,,,-99.99,,2013-08-10 22:01:00,
2013-08-10 16:11:00,74.0,33.0,-100.00,SSE,167,4.0,9.0,23,0.00,,,-99.99,,2013-08-10 22:11:00,
2013-08-10 16:21:00,73.0,34.0,-100.00,SSE,167,6.0,11.0,23,0.00,,,-99.99,,2013-08-10 22:21:00,
2013-08-10 16:32:00,73.0,37.0,-100.00,SSE,167,6.0,10.0,26,0.00,,,-99.99,,2013-08-10 22:32:00,
2013-08-10 16:43:00,73.0,35.0,-100.00,SSE,167,7.0,12.0,24,0.00,,,-99.99,,2013-08-10 22:43:00,
2013-08-10 16:52:00,73.0,37.0,-100.00,SSE,167,7.0,9.0,28,0.01,,,-99.99,,2013-08-10 22:52:00,
2013-08-10 17:01:00,72.0,39.0,-100.00,SSE,167,9.0,12.0,31,0.01,,,-99.99,,2013-08-10 23:01:00,
2013-08-10 17:12:00,71.0,38.0,-100.00,SSE,167,10.0,14.0,30,0.00,,,-99.99,,2013-08-10 23:12:00,
2013-08-10 17:22:00,72.0,36.0,-100.00,SSE,167,12.0,19.0,26,0.00,,,-99.99,,2013-08-10 23:22:00,
2013-08-10 17:32:00,73.0,36.0,-100.00,SSE,167,9.0,13.0,26,0.00,,,-99.99,,2013-08-10 23:32:00,
2013-08-10 17:43:00,73.0,31.0,-100.00,SSE,167,9.0,19.0,21,0.00,,,-99.99,,2013-08-10 23:43:00,
2013-08-10 17:53:00,73.0,30.0,-100.00,SSE,167,12.0,18.0,21,0.00,,,-99.99,,2013-08-10 23:53:00,
2013-08-10 18:01:00,73.0,31.0,-100.00,SSE,167,16.0,29.0,21,0.00,,,-99.99,,2013-08-11 00:01:00,
2013-08-10 18:11:00,71.0,33.0,-100.00,SSE,167,24.0,30.0,24,0.00,,,-99.99,,2013-08-11 00:11:00,
2013-08-10 18:22:00,70.0,34.0,-100.00,SSE,167,20.0,26.0,26,0.00,,,-99.99,,2013-08-11 00:22:00,
2013-08-10 18:32:00,70.0,34.0,-100.00,SSE,167,17.0,23.0,26,0.00,,,-99.99,,2013-08-11 00:32:00,
2013-08-10 18:42:00,72.0,32.0,-100.00,SSE,167,17.0,22.0,23,0.00,,,-99.99,,2013-08-11 00:42:00,
2013-08-10 18:52:00,72.0,33.0,-100.00,SSE,167,18.0,23.0,23,0.00,,,-99.99,,2013-08-11 00:52:00,
2013-08-10 19:01:00,71.0,32.0,-100.00,SSE,167,17.0,21.0,24,0.00,,,-99.99,,2013-08-11 01:01:00,
2013-08-10 19:11:00,71.0,31.0,-100.00,SSE,167,12.0,17.0,23,0.00,,,-99.99,,2013-08-11 01:11:00,
2013-08-10 19:22:00,71.0,31.0,-100.00,SSE,167,13.0,17.0,23,0.00,,,-99.99,,2013-08-11 01:22:00,
2013-08-10 19:32:00,70.0,33.0,-100.00,SSE,167,13.0,18.0,25,0.00,,,-99.99,,2013-08-11 01:32:00,
2013-08-10 19:43:00,70.0,33.0,-100.00,SSE,167,11.0,15.0,26,0.00,,,-99.99,,2013-08-11 01:43:00,
2013-08-10 19:53:00,69.0,34.0,-100.00,SSE,167,10.0,14.0,27,0.00,,,-99.99,,2013-08-11 01:53:00,
2013-08-10 20:02:00,69.0,33.0,-100.00,SSE,167,11.0,18.0,26,0.00,,,-99.99,,2013-08-11 02:02:00,
2013-08-10 20:11:00,69.0,34.0,-100.00,SSE,167,15.0,23.0,27,0.00,,,-99.99,,2013-08-11 02:11:00,
2013-08-10 20:22:00,68.0,34.0,-100.00,SW,222,16.0,23.0,28,0.00,,,-99.99,,2013-08-11 02:22:00,
2013-08-10 20:32:00,67.0,33.0,-100.00,SW,222,14.0,19.0,28,0.00,,,-99.99,,2013-08-11 02:32:00,
2013-08-10 20:43:00,66.0,39.0,-100.00,SW,222,17.0,24.0,37,0.00,,,-99.99,,2013-08-11 02:43:00,
2013-08-10 21:05:00,63.0,41.0,-100.00,WSW,237,17.0,24.0,45,0.00,,,-99.99,,2013-08-11 03:05:00,
2013-08-10 21:43:00,60.0,44.0,-100.00,West,265,9.0,14.0,56,0.00,,,-99.99,,2013-08-11 03:43:00,
2013-08-10 22:12:00,58.0,43.0,-100.00,West,268,6.0,9.0,57,0.00,,,-99.99,,2013-08-11 04:12:00,
2013-08-10 22:22:00,60.0,44.0,-100.00,WNW,285,7.0,11.0,56,0.00,,,-99.99,,2013-08-11 04:22:00,
2013-08-10 22:32:00,58.0,43.0,-100.00,WNW,299,7.0,11.0,57,0.00,,,-99.99,,2013-08-11 04:32:00,
2013-08-10 22:42:00,58.0,42.0,-100.00,WNW,294,7.0,9.0,56,0.00,,,-99.99,,2013-08-11 04:42:00,
2013-08-10 22:53:00,57.0,42.0,-100.00,WNW,294,6.0,7.0,56,0.00,,,-99.99,,2013-08-11 04:53:00,
2013-08-10 23:02:00,58.0,41.0,-100.00,West,272,4.0,6.0,54,0.00,,,-99.99,,2013-08-11 05:02:00,
2013-08-10 23:16:00,56.0,40.0,-100.00,WNW,295,3.0,6.0,55,0.00,,,-99.99,,2013-08-11 05:16:00,
2013-08-10 23:35:00,56.0,39.0,-100.00,West,274,6.0,9.0,53,0.00,,,-99.99,,2013-08-11 05:35:00,
2013-08-10 23:44:00,57.0,39.0,-100.00,West,264,7.0,9.0,51,0.00,,,-99.99,,2013-08-11 05:44:00,